createdAt,value
2022-08-19T00:01:53.131Z,31.00
2022-08-19T00:04:28.311Z,33.28
2022-08-19T00:06:55.769Z,31.50
2022-08-19T00:09:24.539Z,34.30
2022-08-19T00:11:54.020Z,31.85
2022-08-19T00:14:21.941Z,32.13
2022-08-19T00:16:50.142Z,32.78
2022-08-19T00:19:17.433Z,28.80
2022-08-19T00:21:44.478Z,30.55
2022-08-19T00:24:13.273Z,29.80
2022-08-19T00:26:40.449Z,34.63
2022-08-19T00:29:08.967Z,29.90
2022-08-19T00:31:36.717Z,37.67
2022-08-19T00:34:04.112Z,36.35
2022-08-19T00:36:32.864Z,28.43
2022-08-19T00:39:00.319Z,36.92
2022-08-19T00:41:27.682Z,32.03
2022-08-19T00:44:26.950Z,32.67
2022-08-19T00:46:58.150Z,31.30
2022-08-19T00:49:42.498Z,31.60
2022-08-19T00:52:14.575Z,37.78
2022-08-19T00:54:42.522Z,29.70
2022-08-19T00:57:15.939Z,31.73
2022-08-19T01:00:00.325Z,42.20
2022-08-19T01:02:31.181Z,30.20
2022-08-19T01:04:58.476Z,42.63
2022-08-19T01:07:25.805Z,36.33
2022-08-19T01:09:53.224Z,34.08
2022-08-19T01:12:20.398Z,42.38
2022-08-19T01:14:48.604Z,44.42
2022-08-19T01:17:17.200Z,34.75
2022-08-19T01:19:47.731Z,45.90
2022-08-19T01:22:33.259Z,40.15
2022-08-19T01:25:01.635Z,36.55
2022-08-19T01:27:30.366Z,43.60
2022-08-19T01:30:11.854Z,33.20
2022-08-19T01:32:38.565Z,36.35
2022-08-19T01:35:06.263Z,38.10
2022-08-19T01:37:44.973Z,37.37
2022-08-19T01:40:12.502Z,53.57
2022-08-19T01:42:39.470Z,38.92
2022-08-19T01:45:08.506Z,38.22
2022-08-19T01:47:38.978Z,34.80
2022-08-19T01:50:08.215Z,36.50
2022-08-19T01:52:39.112Z,37.00
2022-08-19T01:55:08.495Z,40.42
2022-08-19T01:57:35.885Z,40.27
2022-08-19T02:00:07.537Z,43.03
2022-08-19T02:02:34.278Z,46.07
2022-08-19T02:05:01.017Z,45.27
2022-08-19T02:07:29.297Z,39.77
2022-08-19T02:09:56.515Z,45.65
2022-08-19T02:12:23.314Z,40.53
2022-08-19T02:14:50.196Z,51.10
2022-08-19T02:17:16.972Z,49.53
2022-08-19T02:19:43.751Z,46.67
2022-08-19T02:22:10.527Z,45.63
2022-08-19T02:24:37.372Z,51.53
2022-08-19T02:27:04.432Z,43.03
2022-08-19T02:29:31.162Z,38.83
2022-08-19T02:31:58.060Z,48.77
2022-08-19T02:34:26.005Z,50.13
2022-08-19T02:36:52.948Z,43.37
2022-08-19T02:39:20.064Z,49.47
2022-08-19T02:41:46.826Z,41.53
2022-08-19T02:44:28.853Z,48.40
2022-08-19T02:46:58.566Z,47.80
2022-08-19T02:49:25.364Z,46.70
2022-08-19T02:54:34.488Z,50.37
2022-08-19T02:57:01.362Z,46.17
2022-08-19T02:59:31.283Z,50.93
2022-08-19T03:01:58.153Z,59.53
2022-08-19T03:04:25.440Z,45.80
2022-08-19T03:06:52.548Z,50.80
2022-08-19T03:09:20.844Z,41.80
2022-08-19T03:11:49.343Z,56.10
2022-08-19T03:14:19.608Z,49.87
2022-08-19T03:16:50.022Z,50.47
2022-08-19T03:19:18.630Z,50.03
2022-08-19T03:21:45.984Z,54.13
2022-08-19T03:24:14.604Z,47.87
2022-08-19T03:26:44.384Z,51.80
2022-08-19T03:29:13.382Z,43.70
2022-08-19T03:31:52.136Z,54.83
2022-08-19T03:34:28.935Z,55.17
2022-08-19T03:37:04.523Z,56.00
2022-08-19T03:39:31.673Z,53.40
2022-08-19T03:42:38.168Z,47.23
2022-08-19T03:44:47.789Z,52.17
2022-08-19T03:47:17.526Z,58.90
2022-08-19T03:49:44.643Z,46.13
2022-08-19T03:52:11.495Z,53.40
2022-08-19T03:54:39.521Z,49.42
2022-08-19T03:57:06.982Z,52.23
2022-08-19T03:59:36.486Z,53.47
2022-08-19T04:02:10.259Z,53.50
2022-08-19T04:04:39.738Z,51.57
2022-08-19T04:07:07.641Z,54.63
2022-08-19T04:09:35.664Z,47.20
2022-08-19T04:12:02.468Z,44.07
2022-08-19T04:14:34.788Z,51.40
2022-08-19T04:17:05.774Z,43.07
2022-08-19T04:19:34.918Z,49.63
2022-08-19T04:22:01.740Z,57.97
2022-08-19T04:24:28.537Z,47.60
2022-08-19T04:26:55.691Z,48.83
2022-08-19T04:29:26.261Z,49.60
2022-08-19T04:31:54.584Z,48.33
2022-08-19T04:34:33.548Z,48.77
2022-08-19T04:37:00.308Z,42.80
2022-08-19T04:39:49.833Z,49.13
2022-08-19T04:42:38.079Z,53.93
2022-08-19T04:45:12.630Z,58.10
2022-08-19T04:47:49.401Z,45.38
2022-08-19T04:50:27.776Z,58.80
2022-08-19T04:52:57.098Z,48.33
2022-08-19T04:55:26.477Z,51.60
2022-08-19T04:57:54.586Z,52.83
2022-08-19T05:00:21.473Z,57.10
2022-08-19T05:02:50.457Z,53.10
2022-08-19T05:05:18.329Z,54.80
2022-08-19T05:07:45.457Z,53.67
2022-08-19T05:10:12.703Z,63.30
2022-08-19T05:12:40.185Z,47.22
2022-08-19T05:15:09.563Z,57.40
2022-08-19T05:17:38.866Z,55.27
2022-08-19T05:20:27.106Z,54.23
2022-08-19T05:22:54.026Z,61.17
2022-08-19T05:25:22.635Z,53.00
2022-08-19T05:27:49.879Z,69.57
2022-08-19T05:30:18.097Z,60.33
2022-08-19T05:32:49.458Z,78.37
2022-08-19T05:35:16.253Z,62.93
2022-08-19T05:37:43.008Z,78.33
2022-08-19T05:40:10.728Z,77.80
2022-08-19T05:42:38.408Z,61.17
2022-08-19T05:45:06.499Z,67.33
2022-08-19T05:47:33.496Z,64.57
2022-08-19T05:50:02.917Z,65.07
2022-08-19T05:52:32.543Z,53.53
2022-08-19T05:55:00.422Z,61.83
2022-08-19T05:57:29.875Z,54.00
2022-08-19T05:59:58.853Z,65.93
2022-08-19T06:02:32.038Z,52.13
2022-08-19T06:04:58.979Z,62.80
2022-08-19T06:07:26.095Z,63.03
2022-08-19T06:09:59.063Z,49.77
2022-08-19T06:12:35.330Z,59.37
2022-08-19T06:15:08.450Z,56.70
2022-08-19T06:17:36.359Z,54.93
2022-08-19T06:20:10.054Z,61.07
2022-08-19T06:22:41.177Z,66.67
2022-08-19T06:25:10.397Z,49.53
2022-08-19T06:27:42.040Z,58.73
2022-08-19T06:30:15.909Z,57.90
2022-08-19T06:32:43.131Z,55.63
2022-08-19T06:35:10.013Z,60.03
2022-08-19T06:37:39.718Z,57.30
2022-08-19T06:40:09.499Z,51.47
2022-08-19T06:42:36.535Z,60.00
2022-08-19T06:45:09.273Z,63.03
2022-08-19T06:47:36.479Z,56.10
2022-08-19T06:50:05.365Z,49.53
2022-08-19T06:52:34.881Z,59.30
2022-08-19T06:55:06.274Z,57.60
2022-08-19T06:57:34.522Z,60.97
2022-08-19T07:00:01.852Z,62.30
2022-08-19T07:02:29.152Z,69.30
2022-08-19T07:04:59.048Z,61.97
2022-08-19T07:07:25.977Z,75.53
2022-08-19T07:09:59.026Z,67.33
2022-08-19T07:12:38.273Z,68.17
2022-08-19T07:15:09.897Z,66.23
2022-08-19T07:17:39.123Z,73.32
2022-08-19T07:20:09.345Z,75.77
2022-08-19T07:22:39.091Z,69.10
2022-08-19T07:25:09.268Z,67.10
2022-08-19T07:27:36.834Z,65.70
2022-08-19T07:30:04.251Z,61.43
2022-08-19T07:32:32.512Z,70.28
2022-08-19T07:35:01.784Z,61.87
2022-08-19T07:37:33.107Z,62.43
2022-08-19T07:40:02.064Z,66.17
2022-08-19T07:42:30.821Z,71.63
2022-08-19T07:44:58.816Z,65.57
2022-08-19T07:47:49.585Z,60.90
2022-08-19T07:50:12.716Z,61.50
2022-08-19T07:52:40.677Z,68.63
2022-08-19T07:55:40.212Z,58.97
2022-08-19T07:57:56.894Z,63.10
2022-08-19T08:00:24.525Z,68.03
2022-08-19T08:02:53.000Z,60.23
2022-08-19T08:05:43.675Z,61.80
2022-08-19T08:08:43.918Z,60.63
2022-08-19T08:11:15.503Z,67.63
2022-08-19T08:13:42.903Z,56.70
2022-08-19T08:16:10.299Z,53.72
2022-08-19T08:18:43.271Z,47.23
2022-08-19T08:21:18.198Z,54.13
2022-08-19T08:23:45.264Z,53.90
2022-08-19T08:26:14.055Z,49.60
2022-08-19T08:28:42.853Z,52.67
2022-08-19T08:31:15.540Z,47.53
2022-08-19T08:33:43.305Z,45.90
2022-08-19T08:36:10.826Z,44.77
2022-08-19T08:38:40.551Z,44.73
2022-08-19T08:41:20.500Z,44.10
2022-08-19T08:43:50.050Z,40.50
2022-08-19T08:46:31.645Z,41.78
2022-08-19T08:49:09.757Z,41.50
2022-08-19T08:54:11.869Z,39.67
2022-08-19T08:56:40.814Z,44.63
2022-08-19T08:59:52.265Z,40.70
2022-08-19T09:02:19.865Z,45.60
2022-08-19T09:04:47.450Z,51.85
2022-08-19T09:07:36.857Z,46.58
2022-08-19T09:10:25.799Z,38.53
2022-08-19T09:13:09.319Z,38.85
2022-08-19T09:15:45.517Z,39.83
2022-08-19T09:18:19.128Z,37.75
2022-08-19T09:20:50.831Z,37.35
2022-08-19T09:23:17.651Z,40.20
2022-08-19T09:25:44.529Z,47.65
2022-08-19T09:28:15.526Z,46.25
2022-08-19T09:30:49.655Z,52.45
2022-08-19T09:33:20.583Z,42.95
2022-08-19T09:35:53.378Z,44.08
2022-08-19T09:38:22.286Z,50.22
2022-08-19T09:40:50.350Z,49.17
2022-08-19T09:43:34.059Z,51.40
2022-08-19T09:46:07.425Z,53.53
2022-08-19T09:48:35.017Z,56.55
2022-08-19T09:51:09.095Z,55.60
2022-08-19T09:53:40.074Z,55.53
2022-08-19T09:56:09.427Z,57.63
2022-08-19T09:58:37.380Z,64.88
2022-08-19T10:01:06.301Z,60.10
2022-08-19T10:03:34.994Z,53.03
2022-08-19T10:06:04.707Z,53.92
2022-08-19T10:08:35.608Z,58.47
2022-08-19T10:11:28.152Z,58.78
2022-08-19T10:13:51.677Z,52.95
2022-08-19T10:16:26.026Z,55.13
2022-08-19T10:18:59.123Z,44.50
2022-08-19T10:21:33.031Z,59.28
2022-08-19T10:24:04.749Z,56.78
2022-08-19T10:26:35.721Z,52.53
2022-08-19T10:29:05.852Z,55.88
2022-08-19T10:32:01.216Z,51.13
2022-08-19T10:34:27.656Z,48.17
2022-08-19T10:37:00.956Z,51.42
2022-08-19T10:39:43.199Z,53.53
2022-08-19T10:42:14.318Z,51.10
2022-08-19T10:44:41.979Z,51.08
2022-08-19T10:47:17.546Z,51.35
2022-08-19T10:50:11.797Z,52.83
2022-08-19T10:52:49.875Z,50.90
2022-08-19T10:55:42.633Z,48.10
2022-08-19T10:58:18.107Z,52.30
2022-08-19T11:00:56.388Z,46.55
2022-08-19T11:03:29.363Z,46.65
2022-08-19T11:06:01.150Z,47.58
2022-08-19T11:08:28.526Z,45.10
2022-08-19T11:10:58.529Z,45.90
2022-08-19T11:13:26.075Z,46.30
2022-08-19T11:16:06.558Z,45.40
2022-08-19T11:18:45.389Z,52.10
2022-08-19T11:21:13.919Z,50.38
2022-08-19T11:23:41.447Z,50.83
2022-08-19T11:26:08.223Z,47.97
2022-08-19T11:28:35.034Z,47.70
2022-08-19T11:31:02.347Z,52.35
2022-08-19T11:33:29.177Z,47.40
2022-08-19T11:36:01.766Z,50.30
2022-08-19T11:38:28.627Z,51.10
2022-08-19T11:41:04.173Z,48.10
2022-08-19T11:43:36.762Z,45.80
2022-08-19T11:46:10.991Z,52.33
2022-08-19T11:48:38.943Z,55.95
2022-08-19T11:51:14.643Z,51.55
2022-08-19T11:53:42.027Z,50.28
2022-08-19T11:56:10.208Z,48.08
2022-08-19T11:58:37.681Z,42.72
2022-08-19T12:01:17.752Z,49.53
2022-08-19T12:03:46.076Z,50.08
2022-08-19T12:06:19.798Z,56.97
2022-08-19T12:08:48.552Z,59.20
2022-08-19T12:11:15.543Z,53.80
2022-08-19T12:13:46.865Z,51.38
2022-08-19T12:16:18.053Z,57.92
2022-08-19T12:18:47.448Z,52.63
2022-08-19T12:21:15.912Z,49.42
2022-08-19T12:23:43.852Z,50.78
2022-08-19T12:26:12.146Z,53.17
2022-08-19T12:28:39.787Z,57.40
2022-08-19T12:31:07.028Z,52.05
2022-08-19T12:33:34.019Z,47.45
2022-08-19T12:36:06.741Z,50.13
2022-08-19T12:38:35.544Z,46.33
2022-08-19T12:41:07.952Z,42.10
2022-08-19T12:43:36.092Z,50.15
2022-08-19T12:46:05.253Z,49.05
2022-08-19T12:48:35.042Z,41.30
2022-08-19T12:51:07.974Z,48.65
2022-08-19T12:53:35.039Z,43.63
2022-08-19T12:56:07.428Z,42.75
2022-08-19T12:58:36.056Z,45.45
2022-08-19T13:01:12.258Z,49.58
2022-08-19T13:03:40.797Z,49.85
2022-08-19T13:06:09.412Z,44.63
2022-08-19T13:08:36.945Z,47.78
2022-08-19T13:11:18.830Z,44.97
2022-08-19T13:13:49.286Z,50.63
2022-08-19T13:16:16.908Z,47.92
2022-08-19T13:18:46.337Z,43.50
2022-08-19T13:21:14.262Z,43.05
2022-08-19T13:23:42.030Z,45.15
2022-08-19T13:26:11.282Z,42.92
2022-08-19T13:28:56.955Z,44.72
2022-08-19T13:31:44.652Z,39.33
2022-08-19T13:34:12.197Z,36.63
2022-08-19T13:36:39.687Z,41.40
2022-08-19T13:39:08.668Z,38.63
2022-08-19T13:41:37.087Z,44.88
2022-08-19T13:44:04.941Z,47.40
2022-08-19T13:46:31.823Z,47.38
2022-08-19T13:48:58.768Z,47.67
2022-08-19T13:51:25.576Z,41.58
2022-08-19T13:53:52.479Z,50.58
2022-08-19T13:56:26.327Z,45.38
2022-08-19T13:58:54.489Z,46.75
2022-08-19T14:01:23.347Z,41.40
2022-08-19T14:03:51.766Z,40.20
2022-08-19T14:06:18.501Z,41.97
2022-08-19T14:08:46.430Z,38.67
2022-08-19T14:11:13.400Z,38.25
2022-08-19T14:13:40.556Z,33.75
2022-08-19T14:16:12.186Z,37.17
2022-08-19T14:18:39.557Z,41.40
2022-08-19T14:21:07.807Z,32.17
2022-08-19T14:23:35.082Z,34.10
2022-08-19T14:26:08.042Z,38.83
2022-08-19T14:28:35.119Z,36.85
2022-08-19T14:31:01.863Z,33.75
2022-08-19T14:33:28.596Z,35.00
2022-08-19T14:35:59.858Z,34.72
2022-08-19T14:38:31.634Z,34.63
2022-08-19T14:41:17.347Z,29.80
2022-08-19T14:43:50.805Z,34.38
2022-08-19T14:46:23.733Z,31.98
2022-08-19T14:48:52.761Z,28.48
2022-08-19T14:51:20.960Z,35.55
2022-08-19T14:53:49.789Z,31.00
2022-08-19T14:56:19.577Z,29.55
2022-08-19T14:58:46.753Z,24.75
2022-08-19T15:01:14.505Z,31.67
2022-08-19T15:03:42.152Z,26.73
2022-08-19T15:06:09.594Z,29.60
2022-08-19T15:08:41.947Z,26.00
2022-08-19T15:11:11.505Z,29.25
2022-08-19T15:13:40.500Z,23.95
2022-08-19T15:16:12.051Z,24.40
2022-08-19T15:18:47.201Z,26.67
2022-08-19T15:21:26.694Z,26.98
2022-08-19T15:23:56.547Z,27.98
2022-08-19T15:26:23.404Z,26.63
2022-08-19T15:28:50.149Z,28.63
2022-08-19T15:31:25.214Z,27.08
2022-08-19T15:33:59.114Z,24.80
2022-08-19T15:36:27.102Z,23.33
2022-08-19T15:38:54.156Z,23.55
2022-08-19T15:41:24.755Z,24.95
2022-08-19T15:43:59.705Z,27.48
2022-08-19T15:46:31.475Z,24.52
2022-08-19T15:49:00.012Z,26.77
2022-08-19T15:51:30.469Z,22.52
2022-08-19T15:54:00.366Z,26.33
2022-08-19T15:56:57.844Z,26.13
2022-08-19T15:59:46.807Z,26.38
2022-08-19T16:02:33.299Z,26.60
2022-08-19T16:05:19.031Z,22.02
2022-08-19T16:07:45.841Z,25.50
2022-08-19T16:10:26.531Z,28.20
2022-08-19T16:12:59.068Z,25.98
2022-08-19T16:15:28.122Z,24.85
2022-08-19T16:17:57.371Z,26.27
2022-08-19T16:20:24.718Z,26.98
2022-08-19T16:22:52.971Z,23.13
2022-08-19T16:25:19.682Z,23.13
2022-08-19T16:27:56.269Z,24.05
2022-08-19T16:30:33.188Z,22.15
2022-08-19T16:32:59.966Z,24.17
2022-08-19T16:35:26.644Z,21.65
2022-08-19T16:37:53.791Z,21.85
2022-08-19T16:40:20.656Z,21.15
2022-08-19T16:42:47.555Z,18.58
2022-08-19T16:45:14.266Z,23.52
2022-08-19T16:47:41.257Z,23.00
2022-08-19T16:50:08.455Z,17.67
2022-08-19T16:52:36.517Z,18.33
2022-08-19T16:55:05.988Z,15.70
2022-08-19T16:57:33.253Z,18.38
2022-08-19T17:00:03.146Z,18.45
2022-08-19T17:02:30.458Z,20.08
2022-08-19T17:04:59.314Z,17.60
2022-08-19T17:07:33.296Z,16.35
2022-08-19T17:10:01.481Z,16.52
2022-08-19T17:12:31.852Z,18.40
2022-08-19T17:15:00.758Z,18.15
2022-08-19T17:17:29.383Z,17.60
2022-08-19T17:19:57.574Z,14.65
2022-08-19T17:22:24.318Z,15.20
2022-08-19T17:24:51.012Z,21.13
2022-08-19T17:27:19.776Z,18.58
2022-08-19T17:29:49.400Z,19.55
2022-08-19T17:32:16.115Z,16.88
2022-08-19T17:34:51.598Z,19.42
2022-08-19T17:37:19.188Z,18.08
2022-08-19T17:39:46.223Z,19.17
2022-08-19T17:42:13.041Z,21.80
2022-08-19T17:44:40.896Z,15.90
2022-08-19T17:47:07.825Z,17.67
2022-08-19T17:49:34.806Z,15.43
2022-08-19T17:52:01.487Z,18.10
2022-08-19T17:54:33.241Z,19.10
2022-08-19T17:57:01.428Z,14.80
2022-08-19T17:59:30.270Z,20.52
2022-08-19T18:01:57.650Z,16.05
2022-08-19T18:04:26.158Z,17.40
2022-08-19T18:06:55.411Z,14.27
2022-08-19T18:09:30.016Z,16.20
2022-08-19T18:12:13.611Z,15.73
2022-08-19T18:14:40.550Z,13.48
2022-08-19T18:17:10.398Z,15.35
2022-08-19T18:19:41.442Z,11.82
2022-08-19T18:22:22.619Z,17.42
2022-08-19T18:24:49.972Z,15.10
2022-08-19T18:27:16.866Z,14.23
2022-08-19T18:29:44.484Z,16.88
2022-08-19T18:32:14.455Z,13.65
2022-08-19T18:34:45.934Z,15.63
2022-08-19T18:37:12.968Z,16.75
2022-08-19T18:39:58.386Z,17.45
2022-08-19T18:43:00.472Z,13.60
2022-08-19T18:45:45.720Z,13.98
2022-08-19T18:48:31.029Z,15.00
2022-08-19T18:51:01.637Z,14.50
2022-08-19T18:53:33.536Z,13.63
2022-08-19T18:56:00.353Z,16.42
2022-08-19T18:58:33.107Z,16.52
2022-08-19T19:01:13.173Z,15.65
2022-08-19T19:03:45.916Z,16.52
2022-08-19T19:06:15.872Z,16.42
2022-08-19T19:08:43.585Z,15.82
2022-08-19T19:11:10.460Z,18.63
2022-08-19T19:13:40.460Z,16.27
2022-08-19T19:16:09.993Z,16.73
2022-08-19T19:18:37.393Z,17.98
2022-08-19T19:21:04.435Z,15.05
2022-08-19T19:23:32.127Z,16.60
2022-08-19T19:26:00.803Z,14.82
2022-08-19T19:28:29.369Z,15.05
2022-08-19T19:31:00.134Z,15.90
2022-08-19T19:33:28.176Z,16.90
2022-08-19T19:35:56.008Z,17.25
2022-08-19T19:38:23.037Z,13.85
2022-08-19T19:40:49.944Z,20.08
2022-08-19T19:43:18.400Z,17.63
2022-08-19T19:45:47.069Z,16.58
2022-08-19T19:48:16.363Z,16.17
2022-08-19T19:50:45.052Z,17.83
2022-08-19T19:53:15.098Z,26.38
2022-08-19T19:55:43.127Z,17.98
2022-08-19T19:58:09.806Z,19.00
2022-08-19T20:00:36.634Z,17.88
2022-08-19T20:03:03.567Z,19.40
2022-08-19T20:05:30.309Z,19.88
2022-08-19T20:08:16.231Z,19.48
2022-08-19T20:10:51.314Z,16.80
2022-08-19T20:13:24.695Z,18.73
2022-08-19T20:15:52.414Z,14.93
2022-08-19T20:18:23.861Z,15.88
2022-08-19T20:20:54.607Z,18.48
2022-08-19T20:23:22.865Z,18.70
2022-08-19T20:25:53.812Z,15.15
2022-08-19T20:28:22.569Z,15.05
2022-08-19T20:30:50.028Z,13.55
2022-08-19T20:33:17.897Z,15.32
2022-08-19T20:35:46.862Z,16.95
2022-08-19T20:38:13.709Z,19.75
2022-08-19T20:40:41.328Z,15.27
2022-08-19T20:43:10.352Z,13.52
2022-08-19T20:45:37.203Z,14.15
2022-08-19T20:48:06.743Z,15.20
2022-08-19T20:50:36.054Z,16.40
2022-08-19T20:53:12.987Z,12.88
2022-08-19T20:55:42.791Z,13.85
2022-08-19T20:58:10.115Z,13.00
2022-08-19T21:00:37.609Z,12.93
2022-08-19T21:03:08.706Z,11.68
2022-08-19T21:05:39.871Z,11.23
2022-08-19T21:08:09.363Z,10.27
2022-08-19T21:10:42.175Z,9.53
2022-08-19T21:13:12.845Z,11.83
2022-08-19T21:15:43.186Z,9.63
2022-08-19T21:18:13.301Z,8.57
2022-08-19T21:20:44.560Z,10.20
2022-08-19T21:23:15.140Z,13.10
2022-08-19T21:25:52.983Z,9.43
2022-08-19T21:28:34.557Z,12.20
2022-08-19T21:31:07.070Z,7.80
2022-08-19T21:33:34.254Z,8.67
2022-08-19T21:36:00.925Z,7.50
2022-08-19T21:38:28.598Z,12.67
2022-08-19T21:40:56.104Z,8.50
2022-08-19T21:43:23.942Z,9.23
2022-08-19T21:45:51.047Z,9.07
2022-08-19T21:48:19.122Z,9.67
2022-08-19T21:50:48.515Z,11.00
2022-08-19T21:53:19.349Z,11.70
2022-08-19T21:55:53.434Z,12.17
2022-08-19T21:58:28.133Z,10.97
2022-08-19T22:01:01.675Z,9.60
2022-08-19T22:03:29.288Z,11.20
2022-08-19T22:05:56.114Z,8.30
2022-08-19T22:08:22.987Z,9.20
2022-08-19T22:10:49.843Z,7.93
2022-08-19T22:13:18.342Z,8.47
2022-08-19T22:15:50.418Z,8.47
2022-08-19T22:18:18.420Z,9.43
2022-08-19T22:20:45.694Z,7.03
2022-08-19T22:23:13.410Z,5.33
2022-08-19T22:25:45.037Z,6.20
2022-08-19T22:28:14.131Z,8.90
2022-08-19T22:30:47.209Z,6.57
2022-08-19T22:37:19.924Z,7.20
2022-08-19T22:39:46.648Z,9.83
2022-08-19T22:42:13.872Z,7.70
2022-08-19T22:44:40.570Z,8.10
2022-08-19T22:47:07.281Z,6.53
2022-08-19T22:49:34.040Z,7.23
2022-08-19T22:52:18.157Z,6.93
2022-08-19T22:54:59.106Z,8.50
2022-08-19T22:57:25.818Z,7.60
2022-08-19T22:59:58.890Z,9.10
2022-08-19T23:02:34.525Z,8.20
2022-08-19T23:05:02.657Z,6.63
2022-08-19T23:07:29.589Z,7.03
2022-08-19T23:09:56.762Z,7.23
2022-08-19T23:12:34.046Z,6.77
2022-08-19T23:15:10.207Z,6.63
2022-08-19T23:17:37.505Z,6.00
2022-08-19T23:20:05.957Z,9.23
2022-08-19T23:22:33.686Z,6.97
2022-08-19T23:25:09.960Z,9.37
2022-08-19T23:27:55.279Z,7.07
2022-08-19T23:30:27.915Z,8.93
2022-08-19T23:33:03.505Z,6.43
2022-08-19T23:35:36.372Z,7.23
2022-08-19T23:38:05.329Z,8.13
2022-08-19T23:40:32.204Z,5.57
2022-08-19T23:42:58.960Z,8.50
2022-08-19T23:45:27.439Z,8.40
2022-08-19T23:47:54.782Z,6.77
2022-08-19T23:50:24.123Z,5.20
2022-08-19T23:52:56.888Z,8.70
2022-08-19T23:55:27.601Z,8.20
2022-08-19T23:57:54.391Z,8.47
